sensor_id;sensor_type;location;lat;lon;timestamp;P1;durP1;ratioP1;P2;durP2;ratioP2
71360;SDS011;59166;48.908;1.870;2023-05-07T00:03:33;12.23;;;5.60;;
71360;SDS011;59166;48.908;1.870;2023-05-07T00:08:34;13.38;;;5.13;;
71360;SDS011;59166;48.908;1.870;2023-05-07T00:13:34;15.03;;;5.57;;
71360;SDS011;59166;48.908;1.870;2023-05-07T00:18:37;16.07;;;5.60;;
71360;SDS011;59166;48.908;1.870;2023-05-07T00:23:37;12.27;;;5.40;;
71360;SDS011;59166;48.908;1.870;2023-05-07T00:28:38;13.53;;;5.80;;
71360;SDS011;59166;48.908;1.870;2023-05-07T00:33:40;13.30;;;6.40;;
71360;SDS011;59166;48.908;1.870;2023-05-07T00:38:41;12.60;;;6.23;;
71360;SDS011;59166;48.908;1.870;2023-05-07T00:43:42;14.40;;;6.35;;
71360;SDS011;59166;48.908;1.870;2023-05-07T00:48:45;16.07;;;6.63;;
71360;SDS011;59166;48.908;1.870;2023-05-07T00:53:46;12.70;;;6.13;;
71360;SDS011;59166;48.908;1.870;2023-05-07T00:58:47;14.60;;;6.70;;
71360;SDS011;59166;48.908;1.870;2023-05-07T01:03:50;16.30;;;7.15;;
71360;SDS011;59166;48.908;1.870;2023-05-07T01:08:50;13.63;;;7.50;;
71360;SDS011;59166;48.908;1.870;2023-05-07T01:13:52;15.48;;;7.18;;
71360;SDS011;59166;48.908;1.870;2023-05-07T01:18:55;15.15;;;7.53;;
71360;SDS011;59166;48.908;1.870;2023-05-07T01:23:57;16.47;;;7.40;;
71360;SDS011;59166;48.908;1.870;2023-05-07T01:28:58;15.65;;;7.28;;
71360;SDS011;59166;48.908;1.870;2023-05-07T01:33:59;16.08;;;6.95;;
71360;SDS011;59166;48.908;1.870;2023-05-07T01:39:03;13.20;;;6.50;;
71360;SDS011;59166;48.908;1.870;2023-05-07T01:44:05;15.02;;;7.40;;
71360;SDS011;59166;48.908;1.870;2023-05-07T01:49:08;13.73;;;6.53;;
71360;SDS011;59166;48.908;1.870;2023-05-07T01:54:10;12.17;;;6.40;;
71360;SDS011;59166;48.908;1.870;2023-05-07T01:59:11;12.27;;;6.00;;
71360;SDS011;59166;48.908;1.870;2023-05-07T02:04:12;11.68;;;5.80;;
71360;SDS011;59166;48.908;1.870;2023-05-07T02:09:14;11.17;;;4.90;;
71360;SDS011;59166;48.908;1.870;2023-05-07T02:14:15;9.13;;;4.00;;
71360;SDS011;59166;48.908;1.870;2023-05-07T02:19:16;8.43;;;3.53;;
71360;SDS011;59166;48.908;1.870;2023-05-07T02:24:18;8.07;;;3.63;;
71360;SDS011;59166;48.908;1.870;2023-05-07T02:29:19;10.17;;;4.00;;
71360;SDS011;59166;48.908;1.870;2023-05-07T02:34:19;10.13;;;3.80;;
71360;SDS011;59166;48.908;1.870;2023-05-07T02:39:22;8.40;;;3.57;;
71360;SDS011;59166;48.908;1.870;2023-05-07T02:44:22;8.55;;;3.20;;
71360;SDS011;59166;48.908;1.870;2023-05-07T02:49:23;7.60;;;2.70;;
71360;SDS011;59166;48.908;1.870;2023-05-07T02:54:26;6.73;;;2.60;;
71360;SDS011;59166;48.908;1.870;2023-05-07T02:59:26;6.53;;;2.20;;
71360;SDS011;59166;48.908;1.870;2023-05-07T03:04:27;6.87;;;2.53;;
71360;SDS011;59166;48.908;1.870;2023-05-07T03:09:29;7.32;;;2.70;;
71360;SDS011;59166;48.908;1.870;2023-05-07T03:14:30;7.37;;;3.07;;
71360;SDS011;59166;48.908;1.870;2023-05-07T03:19:31;6.55;;;3.00;;
71360;SDS011;59166;48.908;1.870;2023-05-07T03:24:34;8.80;;;3.07;;
71360;SDS011;59166;48.908;1.870;2023-05-07T03:29:34;6.55;;;2.90;;
71360;SDS011;59166;48.908;1.870;2023-05-07T03:34:35;10.23;;;3.23;;
71360;SDS011;59166;48.908;1.870;2023-05-07T03:39:37;7.60;;;2.88;;
71360;SDS011;59166;48.908;1.870;2023-05-07T03:44:38;6.95;;;2.60;;
71360;SDS011;59166;48.908;1.870;2023-05-07T03:49:39;7.23;;;2.40;;
71360;SDS011;59166;48.908;1.870;2023-05-07T03:54:41;7.25;;;2.13;;
71360;SDS011;59166;48.908;1.870;2023-05-07T03:59:42;6.17;;;2.07;;
71360;SDS011;59166;48.908;1.870;2023-05-07T04:04:43;5.80;;;2.03;;
71360;SDS011;59166;48.908;1.870;2023-05-07T04:09:46;5.90;;;2.10;;
71360;SDS011;59166;48.908;1.870;2023-05-07T04:14:46;6.78;;;2.10;;
71360;SDS011;59166;48.908;1.870;2023-05-07T04:19:47;5.40;;;1.88;;
71360;SDS011;59166;48.908;1.870;2023-05-07T04:24:50;6.50;;;1.80;;
71360;SDS011;59166;48.908;1.870;2023-05-07T04:29:50;5.47;;;1.60;;
71360;SDS011;59166;48.908;1.870;2023-05-07T04:34:51;5.53;;;1.70;;
71360;SDS011;59166;48.908;1.870;2023-05-07T04:39:53;5.93;;;1.90;;
71360;SDS011;59166;48.908;1.870;2023-05-07T04:44:54;5.60;;;1.90;;
71360;SDS011;59166;48.908;1.870;2023-05-07T04:49:55;5.97;;;1.80;;
71360;SDS011;59166;48.908;1.870;2023-05-07T04:54:58;5.30;;;1.80;;
71360;SDS011;59166;48.908;1.870;2023-05-07T05:00:00;5.10;;;1.70;;
71360;SDS011;59166;48.908;1.870;2023-05-07T05:05:00;6.28;;;1.70;;
71360;SDS011;59166;48.908;1.870;2023-05-07T05:10:03;4.57;;;1.50;;
71360;SDS011;59166;48.908;1.870;2023-05-07T05:15:06;6.32;;;1.50;;
71360;SDS011;59166;48.908;1.870;2023-05-07T05:20:08;5.80;;;1.67;;
71360;SDS011;59166;48.908;1.870;2023-05-07T05:25:10;7.60;;;1.70;;
71360;SDS011;59166;48.908;1.870;2023-05-07T05:30:11;4.20;;;1.50;;
71360;SDS011;59166;48.908;1.870;2023-05-07T05:35:12;5.47;;;1.70;;
71360;SDS011;59166;48.908;1.870;2023-05-07T05:40:15;5.33;;;1.57;;
71360;SDS011;59166;48.908;1.870;2023-05-07T05:45:15;5.22;;;1.70;;
71360;SDS011;59166;48.908;1.870;2023-05-07T05:50:16;6.93;;;1.70;;
71360;SDS011;59166;48.908;1.870;2023-05-07T05:55:19;3.90;;;1.48;;
71360;SDS011;59166;48.908;1.870;2023-05-07T06:00:20;5.32;;;1.52;;
71360;SDS011;59166;48.908;1.870;2023-05-07T06:05:21;6.77;;;1.30;;
71360;SDS011;59166;48.908;1.870;2023-05-07T06:10:23;4.05;;;1.30;;
71360;SDS011;59166;48.908;1.870;2023-05-07T06:15:24;4.90;;;1.50;;
71360;SDS011;59166;48.908;1.870;2023-05-07T06:20:25;4.13;;;1.27;;
71360;SDS011;59166;48.908;1.870;2023-05-07T06:25:27;3.38;;;1.20;;
71360;SDS011;59166;48.908;1.870;2023-05-07T06:30:28;4.83;;;1.30;;
71360;SDS011;59166;48.908;1.870;2023-05-07T06:35:29;4.28;;;1.50;;
71360;SDS011;59166;48.908;1.870;2023-05-07T06:40:31;5.17;;;1.60;;
71360;SDS011;59166;48.908;1.870;2023-05-07T06:45:32;4.78;;;1.60;;
71360;SDS011;59166;48.908;1.870;2023-05-07T06:50:32;4.83;;;1.60;;
71360;SDS011;59166;48.908;1.870;2023-05-07T06:55:35;4.15;;;1.60;;
71360;SDS011;59166;48.908;1.870;2023-05-07T07:00:35;3.63;;;1.30;;
71360;SDS011;59166;48.908;1.870;2023-05-07T07:05:36;3.45;;;1.30;;
71360;SDS011;59166;48.908;1.870;2023-05-07T07:10:38;5.07;;;1.60;;
71360;SDS011;59166;48.908;1.870;2023-05-07T07:15:39;5.05;;;1.50;;
71360;SDS011;59166;48.908;1.870;2023-05-07T07:20:40;5.47;;;1.65;;
71360;SDS011;59166;48.908;1.870;2023-05-07T07:25:42;4.47;;;1.60;;
71360;SDS011;59166;48.908;1.870;2023-05-07T07:30:43;5.75;;;1.67;;
71360;SDS011;59166;48.908;1.870;2023-05-07T07:35:44;6.23;;;2.00;;
71360;SDS011;59166;48.908;1.870;2023-05-07T07:40:47;7.00;;;2.50;;
71360;SDS011;59166;48.908;1.870;2023-05-07T07:45:47;7.30;;;2.20;;
71360;SDS011;59166;48.908;1.870;2023-05-07T07:50:48;6.53;;;2.40;;
71360;SDS011;59166;48.908;1.870;2023-05-07T07:55:51;5.72;;;2.40;;
71360;SDS011;59166;48.908;1.870;2023-05-07T08:00:52;6.70;;;2.53;;
71360;SDS011;59166;48.908;1.870;2023-05-07T08:05:52;6.45;;;2.50;;
71360;SDS011;59166;48.908;1.870;2023-05-07T08:10:55;8.73;;;2.90;;
71360;SDS011;59166;48.908;1.870;2023-05-07T08:15:55;8.45;;;3.30;;
71360;SDS011;59166;48.908;1.870;2023-05-07T08:20:56;7.53;;;2.80;;
71360;SDS011;59166;48.908;1.870;2023-05-07T08:25:58;7.68;;;2.83;;
71360;SDS011;59166;48.908;1.870;2023-05-07T08:30:59;8.70;;;3.50;;
71360;SDS011;59166;48.908;1.870;2023-05-07T08:36:00;8.53;;;4.37;;
71360;SDS011;59166;48.908;1.870;2023-05-07T08:41:02;11.07;;;4.73;;
71360;SDS011;59166;48.908;1.870;2023-05-07T08:46:03;11.57;;;5.37;;
71360;SDS011;59166;48.908;1.870;2023-05-07T08:51:04;12.18;;;5.68;;
71360;SDS011;59166;48.908;1.870;2023-05-07T08:56:07;12.32;;;6.03;;
71360;SDS011;59166;48.908;1.870;2023-05-07T09:01:09;12.43;;;6.17;;
71360;SDS011;59166;48.908;1.870;2023-05-07T09:06:12;12.85;;;6.35;;
71360;SDS011;59166;48.908;1.870;2023-05-07T09:11:15;12.40;;;6.93;;
71360;SDS011;59166;48.908;1.870;2023-05-07T09:16:16;11.27;;;5.97;;
71360;SDS011;59166;48.908;1.870;2023-05-07T09:21:17;12.18;;;6.78;;
71360;SDS011;59166;48.908;1.870;2023-05-07T09:26:19;13.83;;;6.33;;
71360;SDS011;59166;48.908;1.870;2023-05-07T09:31:22;12.10;;;6.80;;
71360;SDS011;59166;48.908;1.870;2023-05-07T09:36:22;10.98;;;6.32;;
71360;SDS011;59166;48.908;1.870;2023-05-07T09:41:25;13.33;;;6.40;;
71360;SDS011;59166;48.908;1.870;2023-05-07T09:46:28;11.02;;;6.28;;
71360;SDS011;59166;48.908;1.870;2023-05-07T09:51:37;10.67;;;5.57;;
71360;SDS011;59166;48.908;1.870;2023-05-07T09:56:45;9.37;;;5.13;;
71360;SDS011;59166;48.908;1.870;2023-05-07T10:01:48;9.85;;;5.10;;
71360;SDS011;59166;48.908;1.870;2023-05-07T10:06:50;10.30;;;5.38;;
71360;SDS011;59166;48.908;1.870;2023-05-07T10:11:53;8.77;;;4.70;;
71360;SDS011;59166;48.908;1.870;2023-05-07T10:16:54;8.82;;;4.75;;
71360;SDS011;59166;48.908;1.870;2023-05-07T10:21:59;9.02;;;4.50;;
71360;SDS011;59166;48.908;1.870;2023-05-07T10:27:07;8.87;;;4.30;;
71360;SDS011;59166;48.908;1.870;2023-05-07T10:32:35;9.20;;;4.80;;
71360;SDS011;59166;48.908;1.870;2023-05-07T10:37:40;10.60;;;5.60;;
71360;SDS011;59166;48.908;1.870;2023-05-07T10:42:54;11.93;;;6.13;;
71360;SDS011;59166;48.908;1.870;2023-05-07T10:48:05;15.93;;;8.20;;
71360;SDS011;59166;48.908;1.870;2023-05-07T10:53:23;13.48;;;7.63;;
71360;SDS011;59166;48.908;1.870;2023-05-07T10:58:27;13.45;;;7.93;;
71360;SDS011;59166;48.908;1.870;2023-05-07T11:03:28;16.27;;;7.90;;
71360;SDS011;59166;48.908;1.870;2023-05-07T11:08:34;11.57;;;6.55;;
71360;SDS011;59166;48.908;1.870;2023-05-07T11:13:54;10.73;;;6.03;;
71360;SDS011;59166;48.908;1.870;2023-05-07T11:18:55;12.40;;;6.20;;
71360;SDS011;59166;48.908;1.870;2023-05-07T11:23:59;10.10;;;5.47;;
71360;SDS011;59166;48.908;1.870;2023-05-07T11:29:03;11.40;;;5.97;;
71360;SDS011;59166;48.908;1.870;2023-05-07T11:34:11;10.83;;;5.67;;
71360;SDS011;59166;48.908;1.870;2023-05-07T11:39:25;9.70;;;5.47;;
71360;SDS011;59166;48.908;1.870;2023-05-07T11:44:41;10.40;;;4.93;;
71360;SDS011;59166;48.908;1.870;2023-05-07T11:49:42;10.77;;;5.20;;
71360;SDS011;59166;48.908;1.870;2023-05-07T11:54:48;10.20;;;5.40;;
71360;SDS011;59166;48.908;1.870;2023-05-07T11:59:53;10.95;;;5.20;;
71360;SDS011;59166;48.908;1.870;2023-05-07T12:04:54;20.67;;;5.40;;
71360;SDS011;59166;48.908;1.870;2023-05-07T12:09:55;19.27;;;5.80;;
71360;SDS011;59166;48.908;1.870;2023-05-07T12:14:57;12.02;;;5.60;;
71360;SDS011;59166;48.908;1.870;2023-05-07T12:19:58;12.70;;;5.63;;
71360;SDS011;59166;48.908;1.870;2023-05-07T12:25:00;15.68;;;6.28;;
71360;SDS011;59166;48.908;1.870;2023-05-07T12:30:02;14.33;;;6.03;;
71360;SDS011;59166;48.908;1.870;2023-05-07T12:35:05;15.45;;;6.40;;
71360;SDS011;59166;48.908;1.870;2023-05-07T12:40:08;16.00;;;7.18;;
71360;SDS011;59166;48.908;1.870;2023-05-07T12:45:12;15.40;;;6.37;;
71360;SDS011;59166;48.908;1.870;2023-05-07T12:50:13;10.55;;;4.00;;
71360;SDS011;59166;48.908;1.870;2023-05-07T12:55:15;9.13;;;2.78;;
71360;SDS011;59166;48.908;1.870;2023-05-07T13:00:18;7.40;;;2.90;;
71360;SDS011;59166;48.908;1.870;2023-05-07T13:05:32;8.70;;;3.45;;
71360;SDS011;59166;48.908;1.870;2023-05-07T13:10:33;11.48;;;3.67;;
71360;SDS011;59166;48.908;1.870;2023-05-07T13:15:35;8.70;;;3.50;;
71360;SDS011;59166;48.908;1.870;2023-05-07T13:20:35;9.30;;;4.00;;
71360;SDS011;59166;48.908;1.870;2023-05-07T13:25:36;8.77;;;3.73;;
71360;SDS011;59166;48.908;1.870;2023-05-07T13:30:39;9.38;;;3.83;;
71360;SDS011;59166;48.908;1.870;2023-05-07T13:35:40;8.80;;;4.07;;
71360;SDS011;59166;48.908;1.870;2023-05-07T13:40:41;10.00;;;4.68;;
71360;SDS011;59166;48.908;1.870;2023-05-07T13:45:43;12.00;;;6.27;;
71360;SDS011;59166;48.908;1.870;2023-05-07T13:50:44;11.98;;;6.18;;
71360;SDS011;59166;48.908;1.870;2023-05-07T13:55:45;12.05;;;5.53;;
71360;SDS011;59166;48.908;1.870;2023-05-07T14:00:47;10.77;;;5.40;;
71360;SDS011;59166;48.908;1.870;2023-05-07T14:05:48;10.48;;;5.40;;
71360;SDS011;59166;48.908;1.870;2023-05-07T14:10:48;10.07;;;4.87;;
71360;SDS011;59166;48.908;1.870;2023-05-07T14:15:51;8.77;;;4.25;;
71360;SDS011;59166;48.908;1.870;2023-05-07T14:20:51;9.43;;;4.33;;
71360;SDS011;59166;48.908;1.870;2023-05-07T14:25:52;13.60;;;5.32;;
71360;SDS011;59166;48.908;1.870;2023-05-07T14:30:55;13.88;;;6.10;;
71360;SDS011;59166;48.908;1.870;2023-05-07T14:35:55;11.67;;;4.83;;
71360;SDS011;59166;48.908;1.870;2023-05-07T14:40:56;11.07;;;4.55;;
71360;SDS011;59166;48.908;1.870;2023-05-07T14:45:59;9.53;;;4.80;;
71360;SDS011;59166;48.908;1.870;2023-05-07T14:50:59;11.95;;;5.05;;
71360;SDS011;59166;48.908;1.870;2023-05-07T14:56:00;9.67;;;4.93;;
71360;SDS011;59166;48.908;1.870;2023-05-07T15:01:03;13.48;;;5.45;;
71360;SDS011;59166;48.908;1.870;2023-05-07T15:06:03;10.70;;;4.83;;
71360;SDS011;59166;48.908;1.870;2023-05-07T15:11:04;10.33;;;4.57;;
71360;SDS011;59166;48.908;1.870;2023-05-07T15:16:07;9.38;;;4.63;;
71360;SDS011;59166;48.908;1.870;2023-05-07T15:21:08;10.93;;;4.30;;
71360;SDS011;59166;48.908;1.870;2023-05-07T15:26:09;13.65;;;6.10;;
71360;SDS011;59166;48.908;1.870;2023-05-07T15:31:11;16.33;;;7.05;;
71360;SDS011;59166;48.908;1.870;2023-05-07T15:36:12;15.10;;;7.20;;
71360;SDS011;59166;48.908;1.870;2023-05-07T15:41:13;15.32;;;7.38;;
71360;SDS011;59166;48.908;1.870;2023-05-07T15:46:18;12.43;;;5.65;;
71360;SDS011;59166;48.908;1.870;2023-05-07T15:51:19;14.67;;;6.43;;
71360;SDS011;59166;48.908;1.870;2023-05-07T15:56:20;14.77;;;7.30;;
71360;SDS011;59166;48.908;1.870;2023-05-07T16:01:22;14.47;;;6.40;;
71360;SDS011;59166;48.908;1.870;2023-05-07T16:06:23;14.90;;;7.60;;
71360;SDS011;59166;48.908;1.870;2023-05-07T16:11:24;11.87;;;5.87;;
71360;SDS011;59166;48.908;1.870;2023-05-07T16:16:27;14.60;;;5.70;;
71360;SDS011;59166;48.908;1.870;2023-05-07T16:21:28;11.15;;;4.93;;
71360;SDS011;59166;48.908;1.870;2023-05-07T16:26:28;12.00;;;5.00;;
71360;SDS011;59166;48.908;1.870;2023-05-07T16:31:31;9.85;;;4.40;;
71360;SDS011;59166;48.908;1.870;2023-05-07T16:36:31;11.03;;;5.50;;
71360;SDS011;59166;48.908;1.870;2023-05-07T16:41:32;13.23;;;5.68;;
71360;SDS011;59166;48.908;1.870;2023-05-07T16:46:34;12.10;;;7.03;;
71360;SDS011;59166;48.908;1.870;2023-05-07T16:51:35;16.40;;;7.43;;
71360;SDS011;59166;48.908;1.870;2023-05-07T16:56:36;18.60;;;8.02;;
71360;SDS011;59166;48.908;1.870;2023-05-07T17:01:39;16.03;;;8.30;;
71360;SDS011;59166;48.908;1.870;2023-05-07T17:06:40;15.13;;;6.97;;
71360;SDS011;59166;48.908;1.870;2023-05-07T17:11:40;14.63;;;6.40;;
71360;SDS011;59166;48.908;1.870;2023-05-07T17:16:43;14.77;;;5.82;;
71360;SDS011;59166;48.908;1.870;2023-05-07T17:21:44;14.32;;;6.10;;
71360;SDS011;59166;48.908;1.870;2023-05-07T17:26:46;12.27;;;5.73;;
71360;SDS011;59166;48.908;1.870;2023-05-07T17:31:48;10.15;;;3.65;;
71360;SDS011;59166;48.908;1.870;2023-05-07T17:36:49;8.30;;;3.03;;
71360;SDS011;59166;48.908;1.870;2023-05-07T17:41:50;6.57;;;2.63;;
71360;SDS011;59166;48.908;1.870;2023-05-07T17:46:52;6.13;;;2.30;;
71360;SDS011;59166;48.908;1.870;2023-05-07T17:51:53;8.45;;;2.55;;
71360;SDS011;59166;48.908;1.870;2023-05-07T17:56:54;7.18;;;2.70;;
71360;SDS011;59166;48.908;1.870;2023-05-07T18:01:56;7.87;;;2.57;;
71360;SDS011;59166;48.908;1.870;2023-05-07T18:06:57;9.68;;;3.60;;
71360;SDS011;59166;48.908;1.870;2023-05-07T18:11:57;9.67;;;4.20;;
71360;SDS011;59166;48.908;1.870;2023-05-07T18:17:00;11.02;;;5.28;;
71360;SDS011;59166;48.908;1.870;2023-05-07T18:22:01;12.53;;;5.63;;
71360;SDS011;59166;48.908;1.870;2023-05-07T18:27:01;13.27;;;6.82;;
71360;SDS011;59166;48.908;1.870;2023-05-07T18:32:04;20.48;;;8.48;;
71360;SDS011;59166;48.908;1.870;2023-05-07T18:37:05;16.30;;;8.50;;
71360;SDS011;59166;48.908;1.870;2023-05-07T18:42:06;20.23;;;9.48;;
71360;SDS011;59166;48.908;1.870;2023-05-07T18:47:08;18.03;;;9.70;;
71360;SDS011;59166;48.908;1.870;2023-05-07T18:52:09;20.13;;;9.75;;
71360;SDS011;59166;48.908;1.870;2023-05-07T18:57:10;19.87;;;10.50;;
71360;SDS011;59166;48.908;1.870;2023-05-07T19:02:12;18.25;;;9.80;;
71360;SDS011;59166;48.908;1.870;2023-05-07T19:07:13;19.13;;;9.40;;
71360;SDS011;59166;48.908;1.870;2023-05-07T19:12:14;19.17;;;9.88;;
71360;SDS011;59166;48.908;1.870;2023-05-07T19:17:17;19.95;;;9.77;;
71360;SDS011;59166;48.908;1.870;2023-05-07T19:22:18;17.87;;;9.47;;
71360;SDS011;59166;48.908;1.870;2023-05-07T19:27:19;18.75;;;9.77;;
71360;SDS011;59166;48.908;1.870;2023-05-07T19:32:21;18.83;;;9.53;;
71360;SDS011;59166;48.908;1.870;2023-05-07T19:37:22;17.58;;;9.23;;
71360;SDS011;59166;48.908;1.870;2023-05-07T19:42:22;17.67;;;9.70;;
71360;SDS011;59166;48.908;1.870;2023-05-07T19:47:25;19.02;;;9.70;;
71360;SDS011;59166;48.908;1.870;2023-05-07T19:52:25;17.45;;;9.02;;
71360;SDS011;59166;48.908;1.870;2023-05-07T19:57:26;16.10;;;8.57;;
71360;SDS011;59166;48.908;1.870;2023-05-07T20:02:29;16.45;;;9.00;;
71360;SDS011;59166;48.908;1.870;2023-05-07T20:07:29;15.70;;;8.10;;
71360;SDS011;59166;48.908;1.870;2023-05-07T20:12:30;15.25;;;8.32;;
71360;SDS011;59166;48.908;1.870;2023-05-07T20:17:33;17.93;;;8.67;;
71360;SDS011;59166;48.908;1.870;2023-05-07T20:22:34;15.23;;;8.30;;
71360;SDS011;59166;48.908;1.870;2023-05-07T20:27:36;15.80;;;8.27;;
71360;SDS011;59166;48.908;1.870;2023-05-07T20:32:39;15.90;;;8.27;;
71360;SDS011;59166;48.908;1.870;2023-05-07T20:37:40;16.17;;;8.52;;
71360;SDS011;59166;48.908;1.870;2023-05-07T20:42:40;15.68;;;8.13;;
71360;SDS011;59166;48.908;1.870;2023-05-07T20:47:43;15.53;;;8.10;;
71360;SDS011;59166;48.908;1.870;2023-05-07T20:52:43;15.40;;;7.55;;
71360;SDS011;59166;48.908;1.870;2023-05-07T20:57:44;16.27;;;8.70;;
71360;SDS011;59166;48.908;1.870;2023-05-07T21:02:46;15.82;;;8.20;;
71360;SDS011;59166;48.908;1.870;2023-05-07T21:07:47;15.97;;;8.10;;
71360;SDS011;59166;48.908;1.870;2023-05-07T21:12:48;16.30;;;8.30;;
71360;SDS011;59166;48.908;1.870;2023-05-07T21:17:50;14.97;;;7.83;;
71360;SDS011;59166;48.908;1.870;2023-05-07T21:22:51;17.13;;;8.30;;
71360;SDS011;59166;48.908;1.870;2023-05-07T21:27:52;16.43;;;8.00;;
71360;SDS011;59166;48.908;1.870;2023-05-07T21:32:54;16.73;;;8.50;;
71360;SDS011;59166;48.908;1.870;2023-05-07T21:37:55;15.90;;;8.23;;
71360;SDS011;59166;48.908;1.870;2023-05-07T21:42:56;16.30;;;7.93;;
71360;SDS011;59166;48.908;1.870;2023-05-07T21:47:59;16.92;;;8.20;;
71360;SDS011;59166;48.908;1.870;2023-05-07T21:52:59;17.90;;;8.67;;
71360;SDS011;59166;48.908;1.870;2023-05-07T21:58:00;16.90;;;8.57;;
71360;SDS011;59166;48.908;1.870;2023-05-07T22:03:03;16.43;;;8.20;;
71360;SDS011;59166;48.908;1.870;2023-05-07T22:08:03;16.13;;;7.95;;
71360;SDS011;59166;48.908;1.870;2023-05-07T22:13:04;16.70;;;8.40;;
71360;SDS011;59166;48.908;1.870;2023-05-07T22:18:07;15.60;;;8.03;;
71360;SDS011;59166;48.908;1.870;2023-05-07T22:23:08;18.20;;;8.52;;
71360;SDS011;59166;48.908;1.870;2023-05-07T22:28:08;16.37;;;8.13;;
71360;SDS011;59166;48.908;1.870;2023-05-07T22:33:11;16.63;;;7.93;;
71360;SDS011;59166;48.908;1.870;2023-05-07T22:38:11;16.00;;;7.67;;
71360;SDS011;59166;48.908;1.870;2023-05-07T22:43:12;16.60;;;7.60;;
71360;SDS011;59166;48.908;1.870;2023-05-07T22:48:15;15.18;;;6.93;;
71360;SDS011;59166;48.908;1.870;2023-05-07T22:53:15;15.57;;;7.63;;
71360;SDS011;59166;48.908;1.870;2023-05-07T22:58:16;17.23;;;7.85;;
71360;SDS011;59166;48.908;1.870;2023-05-07T23:03:19;16.70;;;7.87;;
71360;SDS011;59166;48.908;1.870;2023-05-07T23:08:19;16.35;;;7.43;;
71360;SDS011;59166;48.908;1.870;2023-05-07T23:13:20;18.57;;;8.27;;
71360;SDS011;59166;48.908;1.870;2023-05-07T23:18:23;15.73;;;7.10;;
71360;SDS011;59166;48.908;1.870;2023-05-07T23:23:24;19.13;;;8.40;;
71360;SDS011;59166;48.908;1.870;2023-05-07T23:28:24;18.27;;;8.67;;
71360;SDS011;59166;48.908;1.870;2023-05-07T23:33:27;20.33;;;9.05;;
71360;SDS011;59166;48.908;1.870;2023-05-07T23:38:28;17.00;;;8.03;;
71360;SDS011;59166;48.908;1.870;2023-05-07T23:43:29;18.83;;;8.77;;
71360;SDS011;59166;48.908;1.870;2023-05-07T23:48:31;17.77;;;8.73;;
71360;SDS011;59166;48.908;1.870;2023-05-07T23:53:32;15.83;;;7.83;;
71360;SDS011;59166;48.908;1.870;2023-05-07T23:58:33;18.42;;;8.50;;
